Albee, South Dakota
Current Conditions -  °F | °C
As of 10:13 PM on Wednesday 22 Oct 2014 (Local Time) from KDXX Reporting Station
Broken Clouds Broken Clouds  
Wind Chill: 15°   Ceiling: 1500
Heat Index: 15°   Visibility: 10mi
Dew Point: 13°   Wind: 0mph
Humidity: 88%   Direction: NA
Pressure: 29.97"   Gusts: NA
Location:  45.0205°N, 96.5453°W
Report Text: KDXX 230313Z AUTO 00000KT 10SM BKN015 BKN050 15/13 A2997 RMK AO2
Loading
Personal Weather Stations






























Interactive Weather Map
Tropical Storm Tracking
New forecast layout! Learn more

10-Day Weather Forecast

Advertisements
Track Severe Weather on mobile